Flight Track Log - Related Links

Times and Time Zones

All times are in EDT time to prevent confusion due to time zone crossing. See the UAL4295 flight status page for this flight to view local times or setup timezone preferences in your user account.

Time Position Orientation Groundspeed Altitude Reporting Facility
EDT Latitude Longitude Course Direction KTS MPH feet Rate Location/Type
Mon 02:06:33 PM 29.9764 -95.2983 27° Northeast 160 184 700  Level Houston Center
Mon 02:08:06 PM 30.0494 -95.2483 31° Northeast 232 267 3,200 1,427 Climbing Houston Center
Mon 02:09:17 PM 30.1281 -95.2300 11° North 259 298 4,600 1,444 Climbing Houston Center
Mon 02:10:00 PM 30.4075 -95.1629 23° Northeast  Level FlightAware Approximate
Mon 02:10:19 PM 30.2086 -95.2119 11° North 291 335 6,400  Level Houston Center
Mon 02:11:00 PM 30.5086 -95.1049 27° Northeast  Level FlightAware Approximate
Mon 02:11:21 PM 30.2931 -95.1942 10° North 305 351 8,400  Level Houston Center
Mon 02:12:23 PM 30.3889 -95.1739 10° North 294 338 10,200 1,161 Climbing Houston Center
Mon 02:13:25 PM 30.4708 -95.1497 14° North 323 372 10,800 532 Climbing Houston Center
Mon 02:14:27 PM 30.5583 -95.0928 29° Northeast 357 411 11,300 677 Climbing Houston Center
Mon 02:15:29 PM 30.6517 -95.0350 28° Northeast 377 434 12,200 1,016 Climbing Houston Center
Mon 02:16:31 PM 30.7633 -94.9664 28° Northeast 379 436 13,400 1,056 Climbing Houston Center
Mon 02:17:34 PM 30.8586 -94.9075 28° Northeast 385 443 14,400 1,008 Climbing Houston Center
Mon 02:18:36 PM 30.9542 -94.8481 28° Northeast 388 447 15,500 1,016 Climbing Houston Center
Mon 02:19:38 PM 31.0492 -94.7883 28° Northeast 389 448 16,500 968 Climbing Houston Center
Mon 02:20:40 PM 31.1431 -94.7292 28° Northeast 387 445 17,500 1,016 Climbing Houston Center
Mon 02:21:42 PM 31.2506 -94.6544 31° Northeast 392 451 18,600 1,016 Climbing Houston Center
Mon 02:22:44 PM 31.3433 -94.5925 30° Northeast 390 449 19,600 968 Climbing Houston Center
Mon 02:23:46 PM 31.4386 -94.5267 31° Northeast 397 457 20,600 1,016 Climbing Houston Center
Mon 02:24:48 PM 31.5358 -94.4592 31° Northeast 404 465 21,700 1,104 Climbing Houston Center
Mon 02:25:51 PM 31.6525 -94.3778 31° Northeast 407 468 22,900 1,056 Climbing Houston Center
Mon 02:26:53 PM 31.7497 -94.3103 31° Northeast 405 466 23,900 968 Climbing Houston Center
Mon 02:27:55 PM 31.8458 -94.2425 31° Northeast 405 466 24,900 1,016 Climbing Houston Center
Mon 02:28:57 PM 31.9536 -94.1683 30° Northeast 403 464 26,000 1,016 Climbing Houston Center
Mon 02:29:59 PM 32.0503 -94.0994 31° Northeast 403 464 27,000 955 Climbing Houston Center
Mon 02:31:09 PM 32.1533 -94.0247 32° Northeast 397 457 28,100 1,015 Climbing Fort Worth Center
Mon 02:32:09 PM 32.2472 -93.9500 34° Northeast 402 463 29,200 1,050 Climbing Fort Worth Center
Mon 02:33:09 PM 32.3436 -93.8872 29° Northeast 397 457 30,200 900 Climbing Fort Worth Center
Mon 02:34:09 PM 32.4378 -93.8222 30° Northeast 397 457 31,000 400 Climbing Fort Worth Center
Mon 02:35:09 PM 32.5378 -93.7467 32° Northeast 402 463 31,000  Level Fort Worth Center
Mon 02:36:09 PM 32.6442 -93.6733 30° Northeast 414 476 31,000 500 Level Fort Worth Center
Mon 02:37:09 PM 32.7506 -93.5972 31° Northeast 428 493 32,000 1,000 Climbing Fort Worth Center
Mon 02:38:09 PM 32.8547 -93.5211 32° Northeast 435 501 33,000 950 Climbing Fort Worth Center
Mon 02:39:09 PM 32.9586 -93.4447 32° Northeast 440 506 33,900 958 Climbing Fort Worth Center
Mon 02:40:08 PM 33.0608 -93.3733 30° Northeast 434 499 34,900 550 Climbing Fort Worth Center
Mon 02:41:09 PM 33.1650 -93.3017 30° Northeast 434 499 35,000 29 Climbing Fort Worth Center
Mon 02:43:32 PM 33.4267 -93.1100 31° Northeast 453 521 35,000  Level Memphis Center
Mon 02:44:32 PM 33.5389 -93.0314 30° Northeast 458 527 35,000  Level Memphis Center
Mon 02:45:32 PM 33.6492 -92.9500 32° Northeast 458 527 35,000  Level Memphis Center
Mon 02:46:32 PM 33.7614 -92.8683 31° Northeast 458 527 35,000  Level Memphis Center
Mon 02:47:32 PM 33.8717 -92.7889 31° Northeast 458 527 35,000  Level Memphis Center
Mon 02:48:32 PM 33.9839 -92.7044 32° Northeast 463 533 35,000  Level Memphis Center
Mon 02:49:32 PM 34.1003 -92.6122 33° Northeast 463 533 35,000  Level Memphis Center
Mon 02:50:32 PM 34.2122 -92.5297 31° Northeast 463 533 35,000  Level Memphis Center
Mon 02:51:32 PM 34.3264 -92.4447 32° Northeast 463 533 35,000  Level Memphis Center
Mon 02:52:33 PM 34.4364 -92.3642 31° Northeast 463 533 35,000  Level Memphis Center
Mon 02:53:32 PM 34.5439 -92.2811 32° Northeast 463 533 35,000  Level Memphis Center
Mon 02:54:32 PM 34.6431 -92.2075 31° Northeast 463 533 35,000  Level Memphis Center
Mon 02:55:32 PM 34.7386 -92.1058 41° Northeast 453 521 35,000  Level Memphis Center
Mon 02:56:32 PM 34.8256 -91.9889 48° Northeast 448 516 35,000  Level Memphis Center
Mon 02:57:32 PM 34.9147 -91.8792 45° Northeast 448 516 35,000  Level Memphis Center
Mon 02:58:32 PM 35.0036 -91.7617 47° Northeast 455 524 35,000  Level Memphis Center
Mon 02:59:32 PM 35.0925 -91.6514 45° Northeast 455 524 35,000  Level Memphis Center
Mon 03:00:32 PM 35.1792 -91.5358 47° Northeast 455 524 35,000  Level Memphis Center
Mon 03:01:32 PM 35.2678 -91.4200 47° Northeast 455 524 35,000  Level Memphis Center
Mon 03:02:32 PM 35.3583 -91.3067 46° Northeast 460 529 35,000  Level Memphis Center
Mon 03:03:32 PM 35.4572 -91.1778 47° Northeast 461 531 35,000  Level Memphis Center
Mon 03:04:32 PM 35.5436 -91.0664 46° Northeast 461 531 35,000  Level Memphis Center
Mon 03:05:32 PM 35.6233 -90.9622 47° Northeast 461 531 35,000  Level Memphis Center
Mon 03:06:32 PM 35.7178 -90.8325 48° Northeast 461 531 35,000  Level Memphis Center
Mon 03:07:32 PM 35.8036 -90.7153 48° Northeast 461 531 35,000  Level Memphis Center
Mon 03:08:32 PM 35.8914 -90.6006 47° Northeast 461 531 35,000  Level Memphis Center
Mon 03:09:32 PM 35.9792 -90.4800 48° Northeast 461 531 35,000  Level Memphis Center
Mon 03:10:32 PM 36.0689 -90.3622 47° Northeast 466 536 35,000  Level Memphis Center
Mon 03:11:32 PM 36.1564 -90.2439 47° Northeast 466 536 35,000  Level Memphis Center
Mon 03:12:32 PM 36.2458 -90.1228 47° Northeast 466 536 35,000  Level Memphis Center
Mon 03:13:32 PM 36.3333 -90.0067 47° Northeast 458 527 35,000  Level Memphis Center
Mon 03:14:32 PM 36.4203 -89.8875 48° Northeast 458 527 35,000  Level Memphis Center
Mon 03:15:32 PM 36.4992 -89.7839 47° Northeast 458 527 35,000  Level Memphis Center
Mon 03:16:32 PM 36.5881 -89.6617 48° Northeast 463 533 35,000  Level Memphis Center
Mon 03:17:32 PM 36.6792 -89.5419 46° Northeast 463 533 35,000  Level Memphis Center
Mon 03:18:32 PM 36.7658 -89.4194 49° Northeast 463 533 35,000  Level Memphis Center
Mon 03:19:32 PM 36.8503 -89.2992 49° Northeast 463 533 35,000  Level Memphis Center
Mon 03:20:32 PM 36.9389 -89.1786 47° Northeast 463 533 35,000  Level Memphis Center
Mon 03:21:32 PM 37.0231 -89.0603 48° Northeast 463 533 35,000  Level Memphis Center
Mon 03:22:32 PM 37.1114 -88.9392 48° Northeast 463 533 35,000  Level Memphis Center
Mon 03:23:32 PM 37.1972 -88.8181 48° Northeast 463 533 35,000  Level Memphis Center
Mon 03:24:32 PM 37.2833 -88.6964 48° Northeast 463 533 35,000  Level Memphis Center
Mon 03:25:32 PM 37.3692 -88.5772 48° Northeast 463 533 35,000  Level Memphis Center
Mon 03:27:45 PM 37.5561 -88.3000 50° Northeast 466 536 35,000  Level Indianapolis Center
Mon 03:28:47 PM 37.6442 -88.1733 49° Northeast 464 534 35,000  Level Indianapolis Center
Mon 03:29:49 PM 37.7300 -88.0506 49° Northeast 461 531 35,000  Level Indianapolis Center
Mon 03:30:51 PM 37.8111 -87.9317 49° Northeast 463 533 35,000  Level Indianapolis Center
Mon 03:31:53 PM 37.9136 -87.7833 49° Northeast 464 534 35,000  Level Indianapolis Center
Mon 03:32:56 PM 37.9958 -87.6581 50° Northeast 462 532 35,000  Level Indianapolis Center
Mon 03:33:58 PM 38.0758 -87.5308 51° Northeast 460 529 35,000  Level Indianapolis Center
Mon 03:35:00 PM 38.1567 -87.4044 51° Northeast 457 526 35,000  Level Indianapolis Center
Mon 03:36:02 PM 38.2125 -87.2603 64° Northeast 456 525 35,000  Level Indianapolis Center
Mon 03:37:04 PM 38.2597 -87.1164 67° East 456 525 35,000  Level Indianapolis Center
Mon 03:38:06 PM 38.3175 -86.9422 67° East 450 518 35,000 -97 Level Indianapolis Center
Mon 03:39:08 PM 38.3636 -86.7956 68° East 460 529 34,800 -919 Descending Indianapolis Center
Mon 03:40:10 PM 38.4125 -86.6456 67° East 459 528 33,100 -1,597 Descending Indianapolis Center
Mon 03:41:12 PM 38.4619 -86.4908 68° East 468 539 31,500 -1,016 Descending Indianapolis Center
Mon 03:42:14 PM 38.5097 -86.3389 68° East 462 532 31,000 -242 Descending Indianapolis Center
Mon 03:43:16 PM 38.5686 -86.1575 67° East 461 531 31,000  Level Indianapolis Center
Mon 03:44:18 PM 38.6169 -86.0047 68° East 462 532 31,000  Level Indianapolis Center
Mon 03:45:20 PM 38.6642 -85.8528 68° East 461 531 31,000  Level Indianapolis Center
Mon 03:46:22 PM 38.7103 -85.7014 69° East 460 529 31,000  Level Indianapolis Center
Mon 03:47:24 PM 38.7581 -85.5497 68° East 461 531 31,000  Level Indianapolis Center
Mon 03:48:26 PM 38.8050 -85.3969 68° East 463 533 31,000  Level Indianapolis Center
Mon 03:49:28 PM 38.8606 -85.2150 69° East 460 529 31,000 -816 Level Indianapolis Center
Mon 03:50:31 PM 38.9075 -85.0617 68° East 462 532 29,300 -2,064 Descending Indianapolis Center
Mon 03:51:33 PM 38.9547 -84.9056 69° East 469 540 26,700 -2,516 Descending Indianapolis Center
Mon 03:52:35 PM 39.0039 -84.7386 69° East 471 542 24,100 -1,597 Descending Indianapolis Center
Mon 03:53:37 PM 39.0731 -84.5994 57° Northeast 461 531 23,400 -1,210 Descending Indianapolis Center
Mon 03:54:39 PM 39.1456 -84.4667 55° Northeast 452 520 21,600 -1,742 Descending Indianapolis Center
Mon 03:55:41 PM 39.2172 -84.3381 54° Northeast 440 506 19,800 -1,258 Descending Indianapolis Center
Mon 03:56:43 PM 39.2983 -84.1869 55° Northeast 436 502 19,000 -581 Descending Indianapolis Center
Mon 03:57:45 PM 39.3522 -84.0456 64° Northeast 436 502 18,600 -823 Descending Indianapolis Center
Mon 03:58:47 PM 39.4056 -83.9072 63° Northeast 429 494 17,300 -1,403 Descending Indianapolis Center
Mon 03:59:49 PM 39.4592 -83.7686 63° Northeast 429 494 15,700 -1,500 Descending Indianapolis Center
Mon 04:00:39 PM 39.5042 -83.6511 64° Northeast 402 463 14,500 -1,463 Descending Indianapolis Center
Mon 04:01:52 PM 39.5664 -83.4883 64° Northeast 406 467 12,700 -1,478 Descending Indianapolis Center
Mon 04:02:53 PM 39.6233 -83.3653 59° Northeast 398 458 11,200 -1,328 Descending Indianapolis Center
Mon 04:03:54 PM 39.6897 -83.2567 52° Northeast 383 441 10,000 -639 Descending Indianapolis Center
Mon 04:04:55 PM 39.7558 -83.1506 51° Northeast 384 442 9,900 -49 Descending Indianapolis Center
Mon 04:05:56 PM 39.8219 -83.0417 52° Northeast 379 436 9,900 -496 Level Indianapolis Center
Mon 04:06:56 PM 39.8786 -82.9478 52° Northeast 285 328 8,900 -1,338 Descending Indianapolis Center
Mon 04:08:06 PM 39.9117 -82.8528 66° East 293 337 7,000 -2,016 Descending Indianapolis Center
Mon 04:08:58 PM 39.9042 -82.7522 96° East 275 316 4,800 -2,124 Descending Indianapolis Center
Mon 04:09:59 PM 39.9511 -82.7086 35° Northeast 247 284 3,000 -1,770 Descending Indianapolis Center

Login

Don't have an account? Register now (free) for customized features, flight alerts, and more!